Strona główna
METAR-TAF:

METAR-TAF

Lotnisko :

Port lotniczy Ubon Ratchathani

Ubon Ratchathani, Tajlandia

Szerokość geograficzna: 15-15N, Długość geograficzna: 104-52E, wysokość: 123 m

Aktualna obserwacja pogody

Raport powstał 25 minut temu, godzina 06:00 UTC
Wiatr 5 kt od północny wschód, zmienny między północno-północny zachód i południowy wschód
Temperatura 29°C
Wilgotność 52%
Ciśnienie 1015 hPa
Widzialność 10 km lub więcej
Mało chmury na wysokości 3000 ft

METAR: VTUU 130600Z 05005KT 330V140 9999 FEW030 29/18 Q1015 NOSIG

czas: 13:25 (06:25 UTC)

Prognoza

Raport powstał 1 godzina i 25 minut temu, godzina 05:00 UTC
Prognoza ważna od 13 godzina 06 UTC do 14 godzina 06 UTC
Wiatr 8 kt od północno-północny wschód
Widzialność: 9000 m
Stopniowe zmiany
od 13 godzina 21 UTC do 13 godzina 23 UTC
Widzialność: 4000 m
zamglenie
Stopniowe zmiany
od 14 godzina 01 UTC do 14 godzina 03 UTC
Widzialność: 9000 m

TAF: VTUU 130500Z 1306/1406 03008KT 9000 NSC BECMG 1321/1323 4000 BR BECMG 1401/1403 9000 NSW

Obserwacja i prognoza pogody dla ponad 4000 lotnisk (raport METAR i TAF).

Dostępne stacje oznaczono żółtymi i czerwonymi punktami na mapie.

Najedź kursorem aby zobaczyć nazwę stacji.

Kliknij aby zobaczyć obserwacje i prognozy pogody.

Aby zmienić mapę: kliknij na zielony przycisk z czarnym krzyżykiem, aby powiększyć; na zielony przycisk z myślnikiem, aby pomniejszyć; na zielone strzałki, aby przejść do map sąsiednich.


METAR-TAF: